Time;durP1;ratioP1;P1;durP2;ratioP2;P2;SDS_P1;SDS_P2;PMS_P1;PMS_P2;Temp;Humidity;BMP_temperature;BMP_pressure;BME280_temperature;BME280_humidity;BME280_pressure;Samples;Min_cycle;Max_cycle;Signal;HPM_P1;HPM_P2
2024/01/20 00:02:18;;;;;;;9.18;4.63;;;;;;;;;;5032015;27;92547;-75
2024/01/20 00:04:45;;;;;;;8.25;4.72;;;;;;;;;;5051137;27;92387;-74
2024/01/20 00:07:11;;;;;;;7.32;4.80;;;;;;;;;;5052921;27;92229;-75
2024/01/20 00:09:38;;;;;;;9.07;4.65;;;;;;;;;;5050991;27;93268;-74
2024/01/20 00:12:16;;;;;;;5.45;4.38;;;;;;;;;;5051764;27;92463;-75
2024/01/20 00:14:43;;;;;;;6.57;4.57;;;;;;;;;;5056441;27;92141;-75
2024/01/20 00:17:10;;;;;;;4.70;3.97;;;;;;;;;;5032919;27;94998;-75
2024/01/20 00:19:49;;;;;;;8.32;4.45;;;;;;;;;;5017017;27;94186;-74
2024/01/20 00:22:18;;;;;;;10.02;5.22;;;;;;;;;;5050705;27;94831;-76
2024/01/20 00:24:45;;;;;;;10.77;4.75;;;;;;;;;;5056427;27;92966;-75
2024/01/20 00:27:12;;;;;;;10.88;4.40;;;;;;;;;;5037667;27;92580;-74
2024/01/20 00:29:38;;;;;;;8.55;4.88;;;;;;;;;;5054750;27;92575;-75
2024/01/20 00:32:05;;;;;;;12.23;5.45;;;;;;;;;;5054538;27;92703;-75
2024/01/20 00:34:31;;;;;;;5.80;5.00;;;;;;;;;;5055616;27;92412;-75
2024/01/20 00:37:18;;;;;;;9.32;4.47;;;;;;;;;;5057469;27;92900;-75
2024/01/20 00:39:44;;;;;;;8.13;5.15;;;;;;;;;;5053985;27;92429;-75
2024/01/20 00:42:10;;;;;;;8.45;5.28;;;;;;;;;;5054872;27;92351;-75
2024/01/20 00:44:39;;;;;;;8.43;5.05;;;;;;;;;;5055434;27;94276;-76
2024/01/20 00:47:05;;;;;;;7.85;5.20;;;;;;;;;;5053205;27;94786;-75
2024/01/20 00:49:32;;;;;;;6.95;5.55;;;;;;;;;;5034348;27;95562;-75
2024/01/20 00:51:58;;;;;;;7.88;5.45;;;;;;;;;;5054792;27;92383;-75
2024/01/20 00:54:25;;;;;;;8.15;5.80;;;;;;;;;;5055128;27;92960;-75
2024/01/20 00:56:51;;;;;;;9.15;5.45;;;;;;;;;;5054537;27;92310;-75
2024/01/20 00:59:18;;;;;;;8.95;5.45;;;;;;;;;;5057163;27;94222;-75
2024/01/20 01:01:44;;;;;;;8.55;5.32;;;;;;;;;;5054313;27;92424;-75
2024/01/20 01:04:11;;;;;;;9.43;5.13;;;;;;;;;;5055583;27;92127;-75
2024/01/20 01:06:37;;;;;;;9.63;6.78;;;;;;;;;;5035930;27;93297;-75
2024/01/20 01:09:04;;;;;;;7.07;5.65;;;;;;;;;;5054668;27;93216;-75
2024/01/20 01:11:30;;;;;;;13.43;5.95;;;;;;;;;;5049742;27;94943;-75
2024/01/20 01:13:57;;;;;;;11.10;6.88;;;;;;;;;;5053836;27;95385;-75
2024/01/20 01:16:23;;;;;;;8.68;5.43;;;;;;;;;;5055053;27;93071;-75
2024/01/20 01:18:50;;;;;;;8.77;6.88;;;;;;;;;;5055366;27;95031;-75
2024/01/20 01:21:16;;;;;;;9.68;6.28;;;;;;;;;;5052025;27;92500;-74
2024/01/20 01:23:43;;;;;;;13.75;7.45;;;;;;;;;;5036228;27;94268;-74
2024/01/20 01:26:09;;;;;;;10.52;6.45;;;;;;;;;;5053646;27;93271;-74
2024/01/20 01:28:36;;;;;;;10.05;6.78;;;;;;;;;;5019417;27;92554;-74
2024/01/20 01:31:02;;;;;;;11.00;6.55;;;;;;;;;;5053539;27;94332;-74
2024/01/20 01:33:29;;;;;;;13.82;7.03;;;;;;;;;;5052822;27;92849;-75
2024/01/20 01:35:55;;;;;;;11.80;7.68;;;;;;;;;;5051727;27;94894;-75
2024/01/20 01:38:23;;;;;;;11.90;7.40;;;;;;;;;;5053388;27;92491;-74
2024/01/20 01:40:49;;;;;;;13.82;8.30;;;;;;;;;;5053151;27;92554;-74
2024/01/20 01:43:16;;;;;;;10.60;6.68;;;;;;;;;;5056786;27;92545;-74
2024/01/20 01:45:42;;;;;;;12.55;6.78;;;;;;;;;;5054748;27;92965;-74
2024/01/20 01:48:09;;;;;;;13.13;7.60;;;;;;;;;;5053514;27;92580;-74
2024/01/20 01:50:36;;;;;;;11.13;7.80;;;;;;;;;;5053706;27;92451;-74
2024/01/20 01:53:03;;;;;;;13.32;8.35;;;;;;;;;;5054645;27;92978;-74
2024/01/20 01:55:30;;;;;;;10.45;6.97;;;;;;;;;;5036001;27;92613;-74
2024/01/20 01:57:57;;;;;;;14.07;8.10;;;;;;;;;;5052924;27;92416;-74
2024/01/20 02:00:24;;;;;;;14.13;8.30;;;;;;;;;;5052829;27;94734;-74
2024/01/20 02:02:50;;;;;;;13.82;7.93;;;;;;;;;;5037155;27;92279;-74
2024/01/20 02:05:17;;;;;;;10.13;7.05;;;;;;;;;;5053612;27;92954;-75
2024/01/20 02:07:44;;;;;;;13.65;8.27;;;;;;;;;;5053986;27;92922;-75
2024/01/20 02:10:11;;;;;;;14.65;8.65;;;;;;;;;;5032598;27;95251;-75
2024/01/20 02:12:39;;;;;;;13.32;8.27;;;;;;;;;;5052910;27;92831;-74
2024/01/20 02:15:06;;;;;;;11.57;7.93;;;;;;;;;;5053527;27;92628;-74
2024/01/20 02:17:32;;;;;;;12.07;8.90;;;;;;;;;;5052808;27;92236;-74
2024/01/20 02:19:59;;;;;;;11.00;7.78;;;;;;;;;;5033576;27;92591;-75
2024/01/20 02:22:25;;;;;;;13.00;7.75;;;;;;;;;;5053253;27;93237;-75
2024/01/20 02:24:52;;;;;;;13.93;9.65;;;;;;;;;;5036994;27;94744;-74
2024/01/20 02:27:19;;;;;;;13.55;8.70;;;;;;;;;;5034610;27;93257;-74
2024/01/20 02:29:45;;;;;;;13.15;8.77;;;;;;;;;;5052261;27;92837;-75
2024/01/20 02:32:12;;;;;;;12.63;8.35;;;;;;;;;;5052804;27;93060;-74
2024/01/20 02:34:39;;;;;;;14.52;9.43;;;;;;;;;;5054107;27;93149;-74
2024/01/20 02:37:08;;;;;;;11.68;8.57;;;;;;;;;;5031482;27;93942;-74
2024/01/20 02:39:34;;;;;;;15.55;8.93;;;;;;;;;;5051677;27;92692;-74
2024/01/20 02:42:01;;;;;;;12.23;8.68;;;;;;;;;;5053340;27;92417;-74
2024/01/20 02:44:28;;;;;;;14.13;9.23;;;;;;;;;;5053709;27;92468;-75
2024/01/20 02:46:56;;;;;;;13.63;9.80;;;;;;;;;;5057576;27;93448;-74
2024/01/20 02:49:23;;;;;;;16.02;9.20;;;;;;;;;;5063132;27;94254;-74
2024/01/20 02:51:49;;;;;;;11.68;7.70;;;;;;;;;;5037521;27;94349;-74
2024/01/20 02:54:16;;;;;;;14.45;9.13;;;;;;;;;;5059627;27;91836;-74
2024/01/20 02:56:42;;;;;;;18.55;9.85;;;;;;;;;;5035034;27;92556;-74
2024/01/20 02:59:09;;;;;;;12.52;8.73;;;;;;;;;;5013682;28;92305;-74
2024/01/20 03:01:36;;;;;;;17.27;9.88;;;;;;;;;;5008364;28;92389;-74
2024/01/20 03:04:02;;;;;;;16.83;9.15;;;;;;;;;;5014127;28;92540;-75
2024/01/20 03:06:29;;;;;;;14.40;8.73;;;;;;;;;;5015789;28;91962;-74
2024/01/20 03:08:55;;;;;;;17.20;8.82;;;;;;;;;;5016177;28;92521;-74
2024/01/20 03:11:22;;;;;;;13.07;8.82;;;;;;;;;;5011390;28;92798;-74
2024/01/20 03:13:48;;;;;;;13.15;8.35;;;;;;;;;;5010246;28;96467;-74
2024/01/20 03:16:15;;;;;;;12.85;8.50;;;;;;;;;;5014747;28;92742;-74
2024/01/20 03:18:41;;;;;;;19.35;10.35;;;;;;;;;;5008294;28;94351;-74
2024/01/20 03:21:08;;;;;;;14.82;9.27;;;;;;;;;;5015513;28;92890;-74
2024/01/20 03:23:34;;;;;;;11.60;8.15;;;;;;;;;;5025826;28;92510;-74
2024/01/20 03:26:08;;;;;;;13.65;8.23;;;;;;;;;;5022260;28;92940;-74
2024/01/20 03:28:35;;;;;;;10.85;8.60;;;;;;;;;;5023859;28;92464;-74
2024/01/20 03:31:02;;;;;;;12.88;9.13;;;;;;;;;;5020601;28;92910;-74
2024/01/20 03:33:28;;;;;;;13.35;8.73;;;;;;;;;;5014874;28;93139;-74
2024/01/20 03:35:55;;;;;;;13.93;9.57;;;;;;;;;;5013565;28;92442;-74
2024/01/20 03:38:21;;;;;;;11.80;8.05;;;;;;;;;;5016034;28;94814;-74
2024/01/20 03:40:47;;;;;;;13.57;8.23;;;;;;;;;;5011128;28;92186;-73
2024/01/20 03:43:14;;;;;;;13.48;8.73;;;;;;;;;;5018575;28;92945;-73
2024/01/20 03:45:42;;;;;;;12.38;7.95;;;;;;;;;;5013116;28;93689;-73
2024/01/20 03:48:08;;;;;;;12.70;8.63;;;;;;;;;;5012595;28;92464;-74
2024/01/20 03:50:35;;;;;;;12.43;8.73;;;;;;;;;;5012785;28;92604;-75
2024/01/20 03:53:02;;;;;;;13.35;8.10;;;;;;;;;;4994250;28;92356;-74
2024/01/20 03:55:29;;;;;;;16.30;9.30;;;;;;;;;;5013335;28;91974;-74
2024/01/20 03:57:55;;;;;;;13.05;8.43;;;;;;;;;;5030786;27;92473;-73
2024/01/20 04:00:21;;;;;;;11.65;8.48;;;;;;;;;;5056394;27;92472;-74
2024/01/20 04:02:48;;;;;;;13.85;8.35;;;;;;;;;;5034280;27;94962;-74
2024/01/20 04:05:15;;;;;;;11.75;7.70;;;;;;;;;;5055586;27;95384;-74
2024/01/20 04:07:42;;;;;;;12.25;8.27;;;;;;;;;;5056198;27;92960;-74
2024/01/20 04:10:09;;;;;;;14.70;7.45;;;;;;;;;;5054258;27;92434;-73
2024/01/20 04:12:36;;;;;;;12.73;8.32;;;;;;;;;;5058271;27;94152;-73
2024/01/20 04:15:02;;;;;;;13.35;8.27;;;;;;;;;;5055883;27;92889;-73
2024/01/20 04:17:29;;;;;;;11.60;8.02;;;;;;;;;;5054847;27;92303;-73
2024/01/20 04:19:55;;;;;;;13.05;8.07;;;;;;;;;;5054527;27;92126;-73
2024/01/20 04:22:23;;;;;;;10.68;7.57;;;;;;;;;;5056132;27;92056;-73
2024/01/20 04:24:50;;;;;;;13.07;8.75;;;;;;;;;;5053930;27;92480;-73
2024/01/20 04:27:16;;;;;;;14.20;7.60;;;;;;;;;;5054346;27;95409;-73
2024/01/20 04:29:42;;;;;;;13.68;8.27;;;;;;;;;;5053554;27;92161;-74
2024/01/20 04:32:09;;;;;;;10.00;7.35;;;;;;;;;;5055351;27;93690;-74
2024/01/20 04:34:36;;;;;;;15.52;8.25;;;;;;;;;;5056511;27;93116;-74
2024/01/20 04:37:02;;;;;;;12.07;7.68;;;;;;;;;;5055413;27;92461;-74
2024/01/20 04:39:29;;;;;;;11.95;7.30;;;;;;;;;;5053359;27;92840;-74
2024/01/20 04:41:55;;;;;;;12.23;7.30;;;;;;;;;;5054442;27;92540;-74
2024/01/20 04:44:22;;;;;;;10.25;7.43;;;;;;;;;;5056335;27;92308;-74
2024/01/20 04:46:48;;;;;;;12.38;8.15;;;;;;;;;;5054788;27;93081;-74
2024/01/20 04:49:15;;;;;;;11.25;7.65;;;;;;;;;;5054038;27;92509;-74
2024/01/20 04:51:41;;;;;;;10.57;7.63;;;;;;;;;;5052982;27;95649;-74
2024/01/20 04:54:09;;;;;;;9.93;8.02;;;;;;;;;;5054820;27;93209;-74
2024/01/20 04:56:35;;;;;;;14.20;7.93;;;;;;;;;;5057263;27;92361;-73
2024/01/20 04:59:02;;;;;;;11.88;7.25;;;;;;;;;;5054001;27;92387;-74
2024/01/20 05:01:28;;;;;;;11.75;7.28;;;;;;;;;;5054090;27;92935;-73
2024/01/20 05:03:55;;;;;;;12.38;7.95;;;;;;;;;;5053785;27;93238;-74
2024/01/20 05:06:21;;;;;;;13.48;7.93;;;;;;;;;;5054458;27;93137;-73
2024/01/20 05:08:48;;;;;;;10.07;7.57;;;;;;;;;;5036761;27;92514;-73
2024/01/20 05:11:14;;;;;;;12.52;7.75;;;;;;;;;;5054075;27;92742;-73
2024/01/20 05:13:41;;;;;;;12.75;6.70;;;;;;;;;;5054364;27;92732;-73
2024/01/20 05:16:07;;;;;;;11.85;7.80;;;;;;;;;;5052279;27;94907;-73
2024/01/20 05:18:34;;;;;;;12.63;8.00;;;;;;;;;;5056937;27;95282;-73
2024/01/20 05:21:00;;;;;;;11.63;7.32;;;;;;;;;;5053367;27;92441;-74
2024/01/20 05:23:27;;;;;;;9.30;6.75;;;;;;;;;;5053927;27;92625;-73
2024/01/20 05:25:53;;;;;;;11.75;6.55;;;;;;;;;;5036295;27;92528;-73
2024/01/20 05:28:20;;;;;;;9.95;7.07;;;;;;;;;;5055542;27;92280;-73
2024/01/20 05:30:46;;;;;;;12.07;6.85;;;;;;;;;;5054704;27;92579;-73
2024/01/20 05:33:13;;;;;;;10.60;7.03;;;;;;;;;;5054979;27;92128;-73
2024/01/20 05:35:39;;;;;;;9.43;6.20;;;;;;;;;;5053472;27;92259;-73
2024/01/20 05:38:06;;;;;;;13.00;7.85;;;;;;;;;;5053847;27;92901;-74
2024/01/20 05:40:32;;;;;;;11.10;7.40;;;;;;;;;;5054614;27;95808;-73
2024/01/20 05:42:59;;;;;;;12.00;7.85;;;;;;;;;;5053323;27;93960;-73
2024/01/20 05:45:25;;;;;;;9.38;6.95;;;;;;;;;;5053979;27;93264;-73
2024/01/20 05:47:51;;;;;;;11.95;7.40;;;;;;;;;;5034969;27;92726;-73
2024/01/20 05:50:18;;;;;;;11.25;7.47;;;;;;;;;;5053001;27;92295;-73
2024/01/20 05:52:45;;;;;;;12.98;7.20;;;;;;;;;;5053665;27;92439;-73
2024/01/20 05:55:11;;;;;;;13.00;7.88;;;;;;;;;;5036204;27;92980;-73
2024/01/20 05:57:37;;;;;;;10.35;7.38;;;;;;;;;;5052604;27;92017;-73
2024/01/20 06:00:22;;;;;;;10.40;6.65;;;;;;;;;;5046489;27;94375;-73
2024/01/20 06:02:48;;;;;;;12.45;6.88;;;;;;;;;;5055099;27;92477;-74
2024/01/20 06:05:15;;;;;;;10.68;7.15;;;;;;;;;;5051922;27;94842;-73
2024/01/20 06:07:41;;;;;;;13.57;7.38;;;;;;;;;;5054092;27;93148;-74
2024/01/20 06:10:08;;;;;;;12.07;7.70;;;;;;;;;;5052664;27;92392;-73
2024/01/20 06:12:34;;;;;;;9.55;6.40;;;;;;;;;;5053803;27;92279;-73
2024/01/20 06:15:01;;;;;;;10.68;6.93;;;;;;;;;;5052454;27;92999;-73
2024/01/20 06:17:27;;;;;;;14.00;6.28;;;;;;;;;;5036021;27;92273;-73
2024/01/20 06:19:54;;;;;;;8.95;6.55;;;;;;;;;;5031400;27;94554;-73
2024/01/20 06:22:21;;;;;;;9.35;6.80;;;;;;;;;;5027487;27;93856;-74
2024/01/20 06:24:47;;;;;;;11.35;6.78;;;;;;;;;;5053792;27;92359;-74
2024/01/20 06:27:14;;;;;;;9.30;6.90;;;;;;;;;;5052759;27;92531;-74
2024/01/20 06:29:41;;;;;;;11.45;6.97;;;;;;;;;;5050169;27;94896;-73
2024/01/20 06:32:08;;;;;;;11.93;6.72;;;;;;;;;;5054064;27;92577;-73
2024/01/20 06:34:34;;;;;;;12.68;7.53;;;;;;;;;;5052287;27;92428;-73
2024/01/20 06:37:01;;;;;;;9.95;6.68;;;;;;;;;;5053919;27;92751;-73
2024/01/20 06:39:27;;;;;;;8.43;6.50;;;;;;;;;;5034283;27;92444;-73
2024/01/20 06:41:54;;;;;;;7.43;5.78;;;;;;;;;;5053185;27;92287;-73
2024/01/20 06:44:22;;;;;;;10.52;6.45;;;;;;;;;;5055768;27;92854;-73
2024/01/20 06:46:48;;;;;;;9.82;6.85;;;;;;;;;;5016974;27;93651;-74
2024/01/20 06:49:15;;;;;;;9.30;6.78;;;;;;;;;;5052559;27;92352;-74
2024/01/20 06:51:43;;;;;;;8.27;6.35;;;;;;;;;;5052732;27;93005;-74
2024/01/20 06:54:09;;;;;;;7.55;5.95;;;;;;;;;;5033525;27;94624;-74
2024/01/20 06:56:36;;;;;;;9.88;6.65;;;;;;;;;;5052894;27;95299;-74
2024/01/20 06:59:02;;;;;;;10.63;7.13;;;;;;;;;;5052186;27;92375;-74
2024/01/20 07:01:28;;;;;;;9.70;6.00;;;;;;;;;;5034592;27;95502;-74
2024/01/20 07:03:55;;;;;;;9.63;6.72;;;;;;;;;;5052354;27;92380;-74
2024/01/20 07:06:25;;;;;;;12.10;7.03;;;;;;;;;;5037552;27;93741;-74
2024/01/20 07:08:52;;;;;;;11.43;6.72;;;;;;;;;;5053398;27;93025;-74
2024/01/20 07:11:18;;;;;;;9.50;6.60;;;;;;;;;;5045282;27;92141;-74
2024/01/20 07:13:44;;;;;;;9.55;5.28;;;;;;;;;;5051326;27;92436;-73
2024/01/20 07:16:12;;;;;;;8.63;5.95;;;;;;;;;;5048718;27;93304;-73
2024/01/20 07:18:39;;;;;;;10.18;5.85;;;;;;;;;;5051594;27;94845;-73
2024/01/20 07:21:06;;;;;;;11.00;7.28;;;;;;;;;;5050712;27;92829;-74
2024/01/20 07:23:32;;;;;;;8.38;6.00;;;;;;;;;;5052328;27;92421;-74
2024/01/20 07:25:59;;;;;;;8.40;5.35;;;;;;;;;;5052154;27;92691;-73
2024/01/20 07:28:26;;;;;;;11.02;7.10;;;;;;;;;;5055361;27;92956;-73
2024/01/20 07:30:52;;;;;;;10.35;5.78;;;;;;;;;;5033246;27;92536;-73
2024/01/20 07:33:19;;;;;;;8.07;6.22;;;;;;;;;;5050582;27;92547;-74
2024/01/20 07:35:45;;;;;;;7.68;5.55;;;;;;;;;;5052716;27;92447;-74
2024/01/20 07:38:12;;;;;;;9.45;6.05;;;;;;;;;;5051935;27;93290;-74
2024/01/20 07:40:39;;;;;;;8.82;6.28;;;;;;;;;;5051994;27;92344;-74
2024/01/20 07:43:06;;;;;;;8.45;5.63;;;;;;;;;;5050445;27;94766;-74
2024/01/20 07:45:33;;;;;;;8.10;5.22;;;;;;;;;;5053256;27;93076;-73
2024/01/20 07:47:59;;;;;;;6.15;4.68;;;;;;;;;;5051635;27;92390;-73
2024/01/20 07:50:26;;;;;;;7.63;5.45;;;;;;;;;;5053624;27;92578;-73
2024/01/20 07:52:52;;;;;;;8.60;5.60;;;;;;;;;;5051568;27;92450;-74
2024/01/20 07:55:19;;;;;;;8.65;6.07;;;;;;;;;;5034680;27;92160;-74
2024/01/20 07:57:45;;;;;;;7.78;5.97;;;;;;;;;;5031969;27;94763;-73
2024/01/20 08:00:12;;;;;;;9.25;5.80;;;;;;;;;;5053018;27;92049;-74
2024/01/20 08:02:39;;;;;;;9.07;5.78;;;;;;;;;;5051029;27;92608;-74
2024/01/20 08:05:05;;;;;;;7.32;4.82;;;;;;;;;;5051550;27;93119;-73
2024/01/20 08:07:32;;;;;;;9.27;5.75;;;;;;;;;;5050886;27;94739;-73
2024/01/20 08:09:59;;;;;;;9.23;6.35;;;;;;;;;;5053269;27;94032;-73
2024/01/20 08:12:25;;;;;;;7.03;5.45;;;;;;;;;;5051847;27;92404;-74
2024/01/20 08:14:52;;;;;;;8.32;5.40;;;;;;;;;;5052277;27;92511;-73
2024/01/20 08:17:19;;;;;;;6.38;4.95;;;;;;;;;;5051071;27;93612;-74
2024/01/20 08:19:46;;;;;;;10.15;5.97;;;;;;;;;;5049800;27;92611;-73
2024/01/20 08:22:13;;;;;;;7.25;5.55;;;;;;;;;;5051999;27;92548;-73
2024/01/20 08:24:40;;;;;;;7.55;5.63;;;;;;;;;;5050664;27;92111;-73
2024/01/20 08:27:06;;;;;;;6.97;4.90;;;;;;;;;;5052315;27;92894;-73
2024/01/20 08:29:33;;;;;;;8.00;5.50;;;;;;;;;;5050235;27;92466;-73
2024/01/20 08:31:59;;;;;;;8.18;5.13;;;;;;;;;;5052904;27;95754;-73
2024/01/20 08:34:26;;;;;;;6.43;4.88;;;;;;;;;;5051444;27;95390;-74
2024/01/20 08:36:52;;;;;;;7.35;5.20;;;;;;;;;;5033373;27;93039;-74
2024/01/20 08:39:19;;;;;;;8.43;5.47;;;;;;;;;;5050193;27;92481;-73
2024/01/20 08:41:46;;;;;;;6.05;5.35;;;;;;;;;;5051375;27;92706;-73
2024/01/20 08:44:15;;;;;;;7.32;5.15;;;;;;;;;;5053383;27;93081;-73
2024/01/20 08:46:42;;;;;;;6.07;5.10;;;;;;;;;;5036107;27;93038;-73
2024/01/20 08:49:09;;;;;;;10.95;5.85;;;;;;;;;;5054638;27;92297;-74
2024/01/20 08:51:36;;;;;;;6.82;5.38;;;;;;;;;;5054834;27;93129;-74
2024/01/20 08:54:04;;;;;;;8.35;5.50;;;;;;;;;;5057778;27;93984;-73
2024/01/20 08:56:30;;;;;;;7.88;5.32;;;;;;;;;;5050087;27;94829;-74
2024/01/20 08:58:57;;;;;;;8.65;5.50;;;;;;;;;;5035275;27;93229;-73
2024/01/20 09:01:24;;;;;;;7.60;5.63;;;;;;;;;;5054912;27;92279;-73
2024/01/20 09:03:50;;;;;;;8.70;5.38;;;;;;;;;;5053953;27;94339;-73
2024/01/20 09:06:17;;;;;;;6.78;4.80;;;;;;;;;;5054173;27;92544;-73
2024/01/20 09:08:43;;;;;;;7.90;5.50;;;;;;;;;;5054603;27;92441;-73
2024/01/20 09:11:10;;;;;;;11.05;5.97;;;;;;;;;;5054578;27;93045;-73
2024/01/20 09:13:36;;;;;;;7.30;5.05;;;;;;;;;;5036858;27;92998;-73
2024/01/20 09:16:03;;;;;;;7.30;5.60;;;;;;;;;;5057624;27;92452;-73
2024/01/20 09:18:30;;;;;;;5.60;4.97;;;;;;;;;;5054952;27;92483;-73
2024/01/20 09:20:56;;;;;;;7.05;5.80;;;;;;;;;;5052882;27;94792;-73
2024/01/20 09:23:23;;;;;;;10.38;5.65;;;;;;;;;;5053860;27;93185;-73
2024/01/20 09:25:49;;;;;;;8.45;5.78;;;;;;;;;;5053678;27;92354;-73
2024/01/20 09:28:16;;;;;;;8.05;5.20;;;;;;;;;;5053643;27;92892;-73
2024/01/20 09:30:42;;;;;;;8.88;6.35;;;;;;;;;;5052460;27;93748;-74
2024/01/20 09:33:09;;;;;;;7.95;5.68;;;;;;;;;;5052825;27;92829;-74
2024/01/20 09:35:37;;;;;;;5.28;4.78;;;;;;;;;;5034116;27;92440;-74
2024/01/20 09:38:03;;;;;;;7.28;5.15;;;;;;;;;;5056779;27;92009;-74
2024/01/20 09:40:32;;;;;;;5.38;4.80;;;;;;;;;;5052953;27;92354;-74
2024/01/20 09:42:59;;;;;;;12.43;5.88;;;;;;;;;;5053235;27;92602;-74
2024/01/20 09:45:25;;;;;;;6.75;4.85;;;;;;;;;;5052626;27;94974;-74
2024/01/20 09:47:52;;;;;;;12.82;5.20;;;;;;;;;;5052720;27;95044;-74
2024/01/20 09:50:19;;;;;;;7.22;5.18;;;;;;;;;;5052821;27;92277;-74
2024/01/20 09:52:53;;;;;;;5.25;4.65;;;;;;;;;;5053268;27;92223;-74
2024/01/20 09:55:21;;;;;;;6.00;5.00;;;;;;;;;;5034659;27;92882;-74
2024/01/20 09:57:49;;;;;;;7.13;4.47;;;;;;;;;;5051694;27;93137;-74
2024/01/20 10:00:18;;;;;;;10.13;4.55;;;;;;;;;;5057069;27;92318;-74
2024/01/20 10:02:45;;;;;;;4.63;4.00;;;;;;;;;;5052810;27;91992;-73
2024/01/20 10:05:12;;;;;;;8.05;4.18;;;;;;;;;;5034805;27;94278;-74
2024/01/20 10:07:39;;;;;;;5.57;3.78;;;;;;;;;;5054289;27;92268;-74
2024/01/20 10:10:06;;;;;;;10.52;3.58;;;;;;;;;;5050503;27;95031;-74
2024/01/20 10:12:33;;;;;;;6.57;3.42;;;;;;;;;;5053048;27;92459;-74
2024/01/20 10:14:59;;;;;;;6.00;3.58;;;;;;;;;;5035181;27;93311;-75
2024/01/20 10:17:26;;;;;;;5.40;3.50;;;;;;;;;;5050620;27;93083;-74
2024/01/20 10:19:52;;;;;;;4.65;3.42;;;;;;;;;;5054749;27;92741;-74
2024/01/20 10:22:19;;;;;;;5.00;3.95;;;;;;;;;;5052891;27;92188;-74
2024/01/20 10:24:49;;;;;;;3.58;3.28;;;;;;;;;;5053951;27;92821;-75
2024/01/20 10:27:18;;;;;;;9.23;4.10;;;;;;;;;;5048858;27;92545;-74
2024/01/20 10:29:46;;;;;;;3.42;3.13;;;;;;;;;;5034521;27;92735;-74
2024/01/20 10:32:13;;;;;;;5.95;3.60;;;;;;;;;;5034410;27;93850;-75
2024/01/20 10:34:39;;;;;;;10.40;4.00;;;;;;;;;;5034490;27;94821;-75
2024/01/20 10:37:12;;;;;;;5.45;4.00;;;;;;;;;;5052420;27;92441;-75
2024/01/20 10:39:45;;;;;;;11.68;4.60;;;;;;;;;;5032096;27;92904;-74
2024/01/20 10:42:13;;;;;;;8.98;4.13;;;;;;;;;;5054874;27;92378;-74
2024/01/20 10:44:52;;;;;;;5.60;4.20;;;;;;;;;;5031164;27;93149;-75
2024/01/20 10:47:38;;;;;;;10.65;4.78;;;;;;;;;;5052414;27;93111;-75
2024/01/20 10:50:06;;;;;;;6.75;3.72;;;;;;;;;;5038418;27;92866;-75
2024/01/20 10:52:36;;;;;;;6.68;4.78;;;;;;;;;;5052402;27;91984;-74
2024/01/20 10:55:03;;;;;;;18.80;4.15;;;;;;;;;;5050980;27;92443;-74
2024/01/20 10:57:31;;;;;;;7.45;4.20;;;;;;;;;;5050558;27;93167;-75
2024/01/20 10:59:58;;;;;;;8.48;4.03;;;;;;;;;;5031832;27;95674;-76
2024/01/20 11:02:25;;;;;;;13.45;4.45;;;;;;;;;;5050562;27;95177;-75
2024/01/20 11:04:52;;;;;;;9.48;4.38;;;;;;;;;;5055254;27;94044;-74
2024/01/20 11:07:28;;;;;;;7.50;4.18;;;;;;;;;;5053967;27;92350;-74
2024/01/20 11:09:56;;;;;;;7.90;4.65;;;;;;;;;;5052111;27;93163;-73
2024/01/20 11:12:24;;;;;;;7.22;4.38;;;;;;;;;;5052820;27;93389;-74
2024/01/20 11:14:51;;;;;;;6.80;3.90;;;;;;;;;;5052754;27;92867;-73
2024/01/20 11:17:18;;;;;;;5.70;4.18;;;;;;;;;;5051953;27;91997;-73
2024/01/20 11:19:45;;;;;;;7.78;3.95;;;;;;;;;;5051000;27;92446;-73
2024/01/20 11:22:31;;;;;;;5.82;4.15;;;;;;;;;;5052499;27;92484;-73
2024/01/20 11:25:02;;;;;;;19.10;6.82;;;;;;;;;;5051359;27;94832;-73
2024/01/20 11:27:28;;;;;;;15.30;6.95;;;;;;;;;;5053614;27;92445;-73
2024/01/20 11:30:05;;;;;;;16.08;6.47;;;;;;;;;;5032207;27;94030;-73
2024/01/20 11:32:32;;;;;;;15.98;6.00;;;;;;;;;;5032753;27;93028;-73
2024/01/20 11:34:59;;;;;;;10.10;5.35;;;;;;;;;;5051114;27;92911;-73
2024/01/20 11:37:30;;;;;;;12.52;5.47;;;;;;;;;;5049970;27;93093;-73
2024/01/20 11:40:07;;;;;;;8.15;5.13;;;;;;;;;;5049608;27;92549;-73
2024/01/20 11:42:34;;;;;;;9.00;4.53;;;;;;;;;;5050046;27;92857;-74
2024/01/20 11:45:02;;;;;;;9.80;5.03;;;;;;;;;;5050122;27;92470;-73
2024/01/20 11:47:28;;;;;;;7.65;4.05;;;;;;;;;;5049801;27;92072;-73
2024/01/20 11:49:55;;;;;;;5.28;4.15;;;;;;;;;;5030924;27;95204;-73
2024/01/20 11:52:22;;;;;;;7.85;4.82;;;;;;;;;;5052203;27;92839;-73
2024/01/20 11:54:49;;;;;;;7.38;4.43;;;;;;;;;;5051886;27;92582;-74
2024/01/20 11:57:19;;;;;;;5.43;4.00;;;;;;;;;;5051407;27;92262;-73
2024/01/20 11:59:46;;;;;;;7.60;4.53;;;;;;;;;;5052806;27;92590;-73
2024/01/20 12:02:12;;;;;;;7.43;4.28;;;;;;;;;;5050050;27;92719;-74
2024/01/20 12:04:39;;;;;;;5.93;3.45;;;;;;;;;;5051355;27;92422;-74
2024/01/20 12:07:05;;;;;;;8.02;3.75;;;;;;;;;;5036405;27;92017;-74
2024/01/20 12:09:32;;;;;;;6.10;4.10;;;;;;;;;;5044367;27;92597;-73
2024/01/20 12:11:59;;;;;;;4.63;3.83;;;;;;;;;;5055274;27;92272;-73
2024/01/20 12:14:26;;;;;;;7.63;3.70;;;;;;;;;;5049665;27;96018;-73
2024/01/20 12:16:56;;;;;;;6.32;3.80;;;;;;;;;;5051925;27;92229;-73
2024/01/20 12:19:23;;;;;;;4.00;3.60;;;;;;;;;;5055242;27;92455;-73
2024/01/20 12:21:50;;;;;;;6.28;4.03;;;;;;;;;;5054658;27;92867;-74
2024/01/20 12:24:16;;;;;;;5.72;3.80;;;;;;;;;;5036273;27;92571;-73
2024/01/20 12:26:43;;;;;;;4.78;3.78;;;;;;;;;;5055242;27;92705;-73
2024/01/20 12:29:09;;;;;;;4.07;3.70;;;;;;;;;;5054271;27;93169;-73
2024/01/20 12:31:37;;;;;;;7.03;3.90;;;;;;;;;;5058212;27;92276;-73
2024/01/20 12:34:04;;;;;;;5.97;3.75;;;;;;;;;;5054516;27;92399;-74
2024/01/20 12:36:30;;;;;;;4.85;3.33;;;;;;;;;;5054832;27;93236;-74
2024/01/20 12:38:57;;;;;;;6.57;3.75;;;;;;;;;;5053597;27;94961;-74
2024/01/20 12:41:24;;;;;;;4.60;3.15;;;;;;;;;;5054150;27;94578;-73
2024/01/20 12:43:51;;;;;;;4.82;3.47;;;;;;;;;;5052538;27;92459;-78
2024/01/20 12:46:18;;;;;;;4.55;3.72;;;;;;;;;;5034570;27;93127;-75
2024/01/20 12:48:45;;;;;;;6.32;3.72;;;;;;;;;;5036117;27;92543;-74
2024/01/20 12:51:12;;;;;;;6.75;3.70;;;;;;;;;;5052894;27;92530;-73
2024/01/20 12:53:38;;;;;;;3.58;3.15;;;;;;;;;;5052377;27;92433;-74
2024/01/20 12:56:05;;;;;;;4.13;3.72;;;;;;;;;;5052386;27;92300;-74
2024/01/20 12:58:31;;;;;;;3.72;3.35;;;;;;;;;;5064816;27;92628;-73
2024/01/20 13:00:58;;;;;;;4.28;3.42;;;;;;;;;;5063294;27;92084;-74
2024/01/20 13:03:24;;;;;;;5.75;3.33;;;;;;;;;;5055173;27;94939;-73
2024/01/20 13:05:52;;;;;;;6.38;3.25;;;;;;;;;;5051712;27;92495;-73
2024/01/20 13:08:19;;;;;;;7.07;3.70;;;;;;;;;;5052816;27;92628;-74
2024/01/20 13:10:49;;;;;;;3.67;3.13;;;;;;;;;;5052687;27;92588;-74
2024/01/20 13:13:17;;;;;;;3.33;3.00;;;;;;;;;;5053774;27;92733;-73
2024/01/20 13:15:44;;;;;;;3.70;2.83;;;;;;;;;;5038531;27;95147;-74
2024/01/20 13:18:10;;;;;;;5.05;3.28;;;;;;;;;;5035461;27;92655;-73
2024/01/20 13:20:37;;;;;;;3.13;2.75;;;;;;;;;;5052558;27;92212;-74
2024/01/20 13:23:05;;;;;;;3.40;2.60;;;;;;;;;;5018765;27;94121;-73
2024/01/20 13:25:31;;;;;;;6.22;3.42;;;;;;;;;;5054203;27;92455;-73
2024/01/20 13:27:58;;;;;;;5.28;3.70;;;;;;;;;;5034670;27;94725;-73
2024/01/20 13:30:24;;;;;;;5.05;2.83;;;;;;;;;;5053536;27;92896;-73
2024/01/20 13:32:51;;;;;;;3.83;3.05;;;;;;;;;;5029577;27;92493;-74
2024/01/20 13:35:18;;;;;;;4.88;2.72;;;;;;;;;;5055031;27;92419;-74
2024/01/20 13:37:44;;;;;;;3.55;2.80;;;;;;;;;;5056373;27;94146;-74
2024/01/20 13:40:11;;;;;;;5.25;2.80;;;;;;;;;;5054854;27;92270;-73
2024/01/20 13:42:37;;;;;;;3.53;3.10;;;;;;;;;;5053240;27;92343;-72
2024/01/20 13:45:08;;;;;;;2.70;2.50;;;;;;;;;;5021361;27;94137;-73
2024/01/20 13:47:35;;;;;;;3.33;2.63;;;;;;;;;;5055964;27;92505;-73
2024/01/20 13:50:02;;;;;;;5.72;2.90;;;;;;;;;;5055860;27;92156;-73
2024/01/20 13:52:29;;;;;;;2.80;2.42;;;;;;;;;;5034886;27;94895;-72
2024/01/20 13:54:55;;;;;;;2.67;2.47;;;;;;;;;;5036593;27;95349;-73
2024/01/20 13:57:22;;;;;;;4.28;2.72;;;;;;;;;;5034201;27;92514;-73
2024/01/20 13:59:49;;;;;;;2.88;2.58;;;;;;;;;;5057998;27;93062;-73
2024/01/20 14:02:15;;;;;;;2.80;2.60;;;;;;;;;;5053904;27;92371;-73
2024/01/20 14:04:42;;;;;;;2.88;2.47;;;;;;;;;;5053624;27;92322;-73
2024/01/20 14:07:09;;;;;;;3.00;2.75;;;;;;;;;;5055096;27;92268;-73
2024/01/20 14:09:35;;;;;;;3.50;2.60;;;;;;;;;;5034260;27;92589;-73
2024/01/20 14:12:02;;;;;;;2.55;2.22;;;;;;;;;;5054599;27;92512;-73
2024/01/20 14:14:29;;;;;;;4.93;3.00;;;;;;;;;;5052976;27;92385;-73
2024/01/20 14:17:00;;;;;;;3.58;2.53;;;;;;;;;;5052800;27;94832;-73
2024/01/20 14:19:27;;;;;;;3.90;2.55;;;;;;;;;;5053099;27;92477;-73
2024/01/20 14:21:54;;;;;;;2.45;2.25;;;;;;;;;;5056939;27;92939;-73
2024/01/20 14:24:24;;;;;;;3.50;2.50;;;;;;;;;;5053417;27;92389;-73
2024/01/20 14:26:50;;;;;;;2.30;2.15;;;;;;;;;;5034946;27;94658;-74
2024/01/20 14:29:17;;;;;;;5.13;2.63;;;;;;;;;;5052430;27;93451;-74
2024/01/20 14:32:02;;;;;;;2.55;2.30;;;;;;;;;;5052854;27;92369;-74
2024/01/20 14:34:29;;;;;;;2.83;2.40;;;;;;;;;;5052742;27;92306;-74
2024/01/20 14:36:56;;;;;;;3.65;2.80;;;;;;;;;;5053305;27;92576;-74
2024/01/20 14:39:22;;;;;;;3.25;2.25;;;;;;;;;;5053255;27;93829;-74